Valle Di Nervion — IBPC — position and weather

sailwx.info

Track history (hours):
 
Tides and Currents Weather Stations Pressure Air Temp Water Temp Dewpoint Dewpoint Depression Visibility Wind Speed Wind Dir Waves Ship Positions

Valle Di Nervion

Last reported at 2016-Jul-01 16:03 UTC. Time now 2016-Jul-02 05:52 UTC.
Position N 39°05' E 009°02'.

Length 176 m; draft 6.5 m.

Type: Ship. MMSI: 247109500.

Date/timePositionNaut miles runAvg speedWind from/ knotsBaromVisibWave heightAir tempDewpointWater temp
2016-Jul-01 16:03N 39°05' E 009°02'145 9.4
2016-Jul-01 00:33N 38°54' E 005°56'1312.9
2016-Jun-30 23:33N 38°54' E 005°39'2812.7
2016-Jun-30 21:21N 38°56' E 005°03'1112.8
2016-Jun-30 20:31N 38°57' E 004°50'1612.9
2016-Jun-30 19:16N 38°58' E 004°29'913.0
2016-Jun-30 18:33N 38°58' E 004°17'1312.9
2016-Jun-30 17:33N 38°59' E 004°01'1312.6
2016-Jun-30 16:33N 38°60' E 003°44'1312.6
2016-Jun-30 15:33N 39°01' E 003°28'1312.8
2016-Jun-30 14:33N 39°02' E 003°12'1312.5
2016-Jun-30 13:33N 39°04' E 002°56'1212.1
2016-Jun-30 12:33N 39°12' E 002°45'1212.3
2016-Jun-30 11:33N 39°24' E 002°38'9 9.5
2016-Jun-30 10:33N 39°33' E 002°38'1 0.0
2016-Jun-28 11:33N 39°33' E 002°39'1 0.9
2016-Jun-28 10:33N 39°32' E 002°40'0 0.0
2016-Jun-28 09:31N 39°32' E 002°40'0 0.1
2016-Jun-28 08:31N 39°32' E 002°40'7 7.2
2016-Jun-28 07:33N 39°26' E 002°35'1212.4
2016-Jun-28 06:33N 39°16' E 002°25'2613.0
2016-Jun-28 04:33N 38°56' E 002°04'1313.0
2016-Jun-28 03:33N 38°46' E 001°54'1313.2
2016-Jun-28 02:33N 38°35' E 001°44'6813.1
2016-Jun-27 21:21N 37°59' E 000°30'2812.6
2016-Jun-27 19:09N 37°44' E 000°01'712.5
2016-Jun-27 18:33N 37°40' W 000°07'1212.1
2016-Jun-27 17:33N 37°34' W 000°21'1212.1
2016-Jun-27 16:33N 37°29' W 000°35'1211.6
2016-Jun-27 15:33N 37°29' W 000°49'9 7.3
2016-Jun-27 14:21N 37°34' W 000°58'  
2016-Jun-23 20:25N 37°33' W 001°02'1 1.3
2016-Jun-23 19:32N 37°32' W 001°01'6 5.7
2016-Jun-23 18:33N 37°31' W 000°54'1212.0
2016-Jun-23 17:31N 37°32' W 000°38'1212.2
2016-Jun-23 16:33N 37°40' W 000°28'1212.3
2016-Jun-23 15:33N 37°49' W 000°17'1312.8
2016-Jun-23 14:33N 37°59' W 000°06'1313.2
2016-Jun-23 13:33N 38°09' E 000°04'1513.3
2016-Jun-23 12:24N 38°20' E 000°17'1113.4
2016-Jun-23 11:33N 38°29' E 000°27'1713.3
2016-Jun-23 10:17N 38°41' E 000°41'1413.2
2016-Jun-23 09:13N 38°52' E 000°52'1014.5
2016-Jun-23 08:32N 38°60' E 001°01'1613.7
2016-Jun-23 07:24N 39°12' E 001°13'2413.0
2016-Jun-23 05:33N 39°32' E 001°31'1212.6
2016-Jun-23 04:33N 39°42' E 001°40'1312.9
2016-Jun-23 03:34N 39°52' E 001°50'1313.0
2016-Jun-23 02:33N 40°03' E 001°60'1313.1
2016-Jun-23 01:33N 40°13' E 002°10'1313.1
2016-Jun-23 00:33N 40°24' E 002°20'1312.9
2016-Jun-22 23:33N 40°34' E 002°30'1312.8
2016-Jun-22 22:33N 40°45' E 002°40'1312.6
2016-Jun-22 21:33N 40°56' E 002°49'1312.7
2016-Jun-22 20:33N 41°06' E 002°59'1313.0
2016-Jun-22 19:33N 41°16' E 003°09'1313.0
2016-Jun-22 18:33N 41°27' E 003°19'1313.3
2016-Jun-22 17:33N 41°38' E 003°29'1313.0
2016-Jun-22 16:33N 41°48' E 003°39'1313.1
2016-Jun-22 15:33N 41°59' E 003°50'1313.1
2016-Jun-22 14:33N 42°09' E 003°60'1313.1
2016-Jun-22 13:33N 42°20' E 004°11'2713.4
2016-Jun-22 11:32N 42°42' E 004°32'1513.3
2016-Jun-22 10:24N 42°54' E 004°44'1513.0
2016-Jun-22 09:14N 43°06' E 004°56'812.3
2016-Jun-22 08:33N 43°14' E 005°00'1110.5
2016-Jun-22 07:33N 43°24' E 004°55'1 0.8
2016-Jun-22 06:13N 43°25' E 004°53'0 0.0
2016-Jun-22 04:19N 43°25' E 004°53'0 0.0
2016-Jun-22 01:19N 43°25' E 004°53'0 0.0
2016-Jun-21 21:31N 43°25' E 004°53'0 0.0
2016-Jun-21 20:19N 43°25' E 004°53'0 0.0
2016-Jun-21 18:31N 43°25' E 004°53'  
Track history (hours):
 
Tides and Currents Weather Stations Pressure Air Temp Water Temp Dewpoint Dewpoint Depression Visibility Wind Speed Wind Dir Waves Ship Positions

Valle Di Nervion

Last reported at 2016-Jul-01 16:03 UTC. Time now 2016-Jul-02 05:52 UTC.
Position N 39°05' E 009°02'.

Length 176 m; draft 6.5 m.

Type: Ship. MMSI: 247109500.

Date/timePositionNaut miles runAvg speedWind from/ knotsBaromVisibWave heightAir tempDewpointWater temp
2016-Jul-01 16:03N 39°05' E 009°02'145 9.4
2016-Jul-01 00:33N 38°54' E 005°56'1312.9
2016-Jun-30 23:33N 38°54' E 005°39'2812.7
2016-Jun-30 21:21N 38°56' E 005°03'1112.8
2016-Jun-30 20:31N 38°57' E 004°50'1612.9
2016-Jun-30 19:16N 38°58' E 004°29'913.0
2016-Jun-30 18:33N 38°58' E 004°17'1312.9
2016-Jun-30 17:33N 38°59' E 004°01'1312.6
2016-Jun-30 16:33N 38°60' E 003°44'1312.6
2016-Jun-30 15:33N 39°01' E 003°28'1312.8
2016-Jun-30 14:33N 39°02' E 003°12'1312.5
2016-Jun-30 13:33N 39°04' E 002°56'1212.1
2016-Jun-30 12:33N 39°12' E 002°45'1212.3
2016-Jun-30 11:33N 39°24' E 002°38'9 9.5
2016-Jun-30 10:33N 39°33' E 002°38'1 0.0
2016-Jun-28 11:33N 39°33' E 002°39'1 0.9
2016-Jun-28 10:33N 39°32' E 002°40'0 0.0
2016-Jun-28 09:31N 39°32' E 002°40'0 0.1
2016-Jun-28 08:31N 39°32' E 002°40'7 7.2
2016-Jun-28 07:33N 39°26' E 002°35'1212.4
2016-Jun-28 06:33N 39°16' E 002°25'2613.0
2016-Jun-28 04:33N 38°56' E 002°04'1313.0
2016-Jun-28 03:33N 38°46' E 001°54'1313.2
2016-Jun-28 02:33N 38°35' E 001°44'6813.1
2016-Jun-27 21:21N 37°59' E 000°30'2812.6
2016-Jun-27 19:09N 37°44' E 000°01'712.5
2016-Jun-27 18:33N 37°40' W 000°07'1212.1
2016-Jun-27 17:33N 37°34' W 000°21'1212.1
2016-Jun-27 16:33N 37°29' W 000°35'1211.6
2016-Jun-27 15:33N 37°29' W 000°49'9 7.3
2016-Jun-27 14:21N 37°34' W 000°58'  
2016-Jun-23 20:25N 37°33' W 001°02'1 1.3
2016-Jun-23 19:32N 37°32' W 001°01'6 5.7
2016-Jun-23 18:33N 37°31' W 000°54'1212.0
2016-Jun-23 17:31N 37°32' W 000°38'1212.2
2016-Jun-23 16:33N 37°40' W 000°28'1212.3
2016-Jun-23 15:33N 37°49' W 000°17'1312.8
2016-Jun-23 14:33N 37°59' W 000°06'1313.2
2016-Jun-23 13:33N 38°09' E 000°04'1513.3
2016-Jun-23 12:24N 38°20' E 000°17'1113.4
2016-Jun-23 11:33N 38°29' E 000°27'1713.3
2016-Jun-23 10:17N 38°41' E 000°41'1413.2
2016-Jun-23 09:13N 38°52' E 000°52'1014.5
2016-Jun-23 08:32N 38°60' E 001°01'1613.7
2016-Jun-23 07:24N 39°12' E 001°13'2413.0
2016-Jun-23 05:33N 39°32' E 001°31'1212.6
2016-Jun-23 04:33N 39°42' E 001°40'1312.9
2016-Jun-23 03:34N 39°52' E 001°50'1313.0
2016-Jun-23 02:33N 40°03' E 001°60'1313.1
2016-Jun-23 01:33N 40°13' E 002°10'1313.1
2016-Jun-23 00:33N 40°24' E 002°20'1312.9
2016-Jun-22 23:33N 40°34' E 002°30'1312.8
2016-Jun-22 22:33N 40°45' E 002°40'1312.6
2016-Jun-22 21:33N 40°56' E 002°49'1312.7
2016-Jun-22 20:33N 41°06' E 002°59'1313.0
2016-Jun-22 19:33N 41°16' E 003°09'1313.0
2016-Jun-22 18:33N 41°27' E 003°19'1313.3
2016-Jun-22 17:33N 41°38' E 003°29'1313.0
2016-Jun-22 16:33N 41°48' E 003°39'1313.1
2016-Jun-22 15:33N 41°59' E 003°50'1313.1
2016-Jun-22 14:33N 42°09' E 003°60'1313.1
2016-Jun-22 13:33N 42°20' E 004°11'2713.4
2016-Jun-22 11:32N 42°42' E 004°32'1513.3
2016-Jun-22 10:24N 42°54' E 004°44'1513.0
2016-Jun-22 09:14N 43°06' E 004°56'812.3
2016-Jun-22 08:33N 43°14' E 005°00'1110.5
2016-Jun-22 07:33N 43°24' E 004°55'1 0.8
2016-Jun-22 06:13N 43°25' E 004°53'0 0.0
2016-Jun-22 04:19N 43°25' E 004°53'0 0.0
2016-Jun-22 01:19N 43°25' E 004°53'0 0.0
2016-Jun-21 21:31N 43°25' E 004°53'0 0.0
2016-Jun-21 20:19N 43°25' E 004°53'0 0.0
2016-Jun-21 18:31N 43°25' E 004°53'  

Dump ship's entire track history